Time;durP1;ratioP1;P1;durP2;ratioP2;P2;SDS_P1;SDS_P2;PMS_P1;PMS_P2;Temp;Humidity;BMP_temperature;BMP_pressure;BME280_temperature;BME280_humidity;BME280_pressure;Samples;Min_cycle;Max_cycle;Signal;HPM_P1;HPM_P2
2021/01/04 00:02:33;;;;;;;18.58;11.13;;;1.60;99.90;;;;;;5003211;28;20027;-75
2021/01/04 00:05:26;;;;;;;21.83;11.57;;;1.60;99.90;;;;;;4987685;28;20014;-75
2021/01/04 00:08:10;;;;;;;24.67;10.90;;;1.60;99.90;;;;;;4990030;28;20030;-75
2021/01/04 00:10:55;;;;;;;23.33;11.05;;;1.60;99.90;;;;;;4990518;28;20029;-75
2021/01/04 00:13:55;;;;;;;17.63;10.85;;;1.50;99.90;;;;;;5003934;28;20038;-75
2021/01/04 00:16:31;;;;;;;21.02;10.85;;;1.50;99.90;;;;;;4968520;28;20306;-74
2021/01/04 00:19:12;;;;;;;21.42;11.80;;;1.50;99.90;;;;;;4982774;28;20038;-75
2021/01/04 00:22:03;;;;;;;20.85;11.25;;;1.40;99.90;;;;;;4992101;28;20084;-75
2021/01/04 00:24:44;;;;;;;20.13;11.55;;;1.40;99.90;;;;;;4980558;28;20082;-75
2021/01/04 00:27:14;;;;;;;;;;;1.40;99.90;;;;;;4990981;28;20030;-75
2021/01/04 00:29:39;;;;;;;21.02;10.98;;;1.30;99.90;;;;;;4991976;28;20710;-75
2021/01/04 00:32:15;;;;;;;22.00;10.70;;;1.40;99.90;;;;;;4990787;28;20038;-75
2021/01/04 00:34:48;;;;;;;24.42;10.07;;;1.30;99.90;;;;;;4990253;28;20041;-76
2021/01/04 00:37:53;;;;;;;19.75;11.18;;;1.30;99.90;;;;;;4991679;28;20033;-75
2021/01/04 00:40:52;;;;;;;18.40;10.52;;;1.30;99.90;;;;;;4990960;28;20026;-74
2021/01/04 00:43:32;;;;;;;21.27;11.20;;;1.30;99.90;;;;;;4979848;28;20072;-74
2021/01/04 00:45:59;;;;;;;23.17;12.80;;;1.30;99.90;;;;;;4990239;28;20022;-74
2021/01/04 00:48:45;;;;;;;21.35;11.25;;;1.30;99.90;;;;;;5006284;28;20026;-74
2021/01/04 00:51:20;;;;;;;23.92;12.82;;;1.30;99.90;;;;;;4988930;28;20081;-74
2021/01/04 00:53:49;;;;;;;20.40;11.43;;;1.30;99.90;;;;;;4990061;28;20089;-75
2021/01/04 00:56:44;;;;;;;25.80;11.98;;;1.30;99.90;;;;;;4991350;28;20423;-75
2021/01/04 00:59:28;;;;;;;24.08;12.40;;;1.30;99.90;;;;;;4954403;28;20027;-75
2021/01/04 01:02:02;;;;;;;26.45;12.13;;;1.30;99.90;;;;;;4990921;28;20033;-75
2021/01/04 01:04:43;;;;;;;22.02;11.35;;;1.30;99.90;;;;;;4991233;28;20023;-75
2021/01/04 01:07:28;;;;;;;20.80;11.73;;;1.30;99.90;;;;;;4991867;28;20105;-75
2021/01/04 01:09:54;;;;;;;25.25;12.30;;;1.30;99.90;;;;;;4992032;28;20057;-75
2021/01/04 01:12:39;;;;;;;19.90;10.75;;;1.30;99.90;;;;;;4991471;28;20023;-75
2021/01/04 01:15:15;;;;;;;22.50;12.77;;;1.40;99.90;;;;;;4991398;28;20062;-74
2021/01/04 01:18:21;;;;;;;27.13;12.60;;;1.30;99.90;;;;;;4991639;28;20029;-75
2021/01/04 01:20:52;;;;;;;20.38;11.30;;;1.40;99.90;;;;;;4992264;28;20434;-75
2021/01/04 01:23:19;;;;;;;21.45;11.10;;;1.30;99.90;;;;;;4992507;28;20026;-76
2021/01/04 01:25:59;;;;;;;28.13;12.52;;;1.40;99.90;;;;;;4991733;28;20607;-76
2021/01/04 01:28:43;;;;;;;26.48;12.98;;;1.40;99.90;;;;;;5007072;28;20072;-76
2021/01/04 01:31:11;;;;;;;22.23;12.77;;;1.40;99.90;;;;;;4992125;28;20045;-75
2021/01/04 01:33:43;;;;;;;31.00;13.30;;;1.40;99.90;;;;;;5007103;28;20034;-75
2021/01/04 01:36:37;;;;;;;26.67;13.70;;;1.50;99.90;;;;;;4991398;28;20456;-75
2021/01/04 01:39:36;;;;;;;27.58;15.20;;;1.50;99.90;;;;;;4991970;28;20034;-75
2021/01/04 01:42:26;;;;;;;24.90;13.55;;;1.50;99.90;;;;;;4991872;28;20019;-75
2021/01/04 01:45:13;;;;;;;30.85;14.40;;;1.60;99.90;;;;;;4991347;28;20041;-75
2021/01/04 01:47:49;;;;;;;29.80;14.00;;;1.50;99.90;;;;;;4990719;28;20032;-75
2021/01/04 01:50:56;;;;;;;30.17;14.05;;;1.50;99.90;;;;;;4992029;28;20023;-75
2021/01/04 01:53:33;;;;;;;25.13;12.80;;;1.50;99.90;;;;;;4981888;28;20029;-76
2021/01/04 01:56:16;;;;;;;26.25;13.75;;;1.50;99.90;;;;;;4995166;28;20014;-76
2021/01/04 01:58:51;;;;;;;25.23;13.80;;;1.60;99.90;;;;;;4994036;28;20030;-75
2021/01/04 02:01:52;;;;;;;31.52;14.85;;;1.60;99.90;;;;;;4995384;28;20468;-75
2021/01/04 02:04:48;;;;;;;28.17;13.88;;;1.60;99.90;;;;;;4993788;28;20030;-75
2021/01/04 02:07:24;;;;;;;30.08;13.63;;;1.60;99.90;;;;;;4981987;28;20443;-75
2021/01/04 02:09:59;;;;;;;27.48;14.82;;;1.60;99.90;;;;;;4992560;28;20022;-75
2021/01/04 02:12:51;;;;;;;29.80;14.73;;;1.70;99.90;;;;;;4990973;28;20034;-75
2021/01/04 02:15:31;;;;;;;29.30;14.48;;;1.60;99.90;;;;;;4983795;28;20499;-75
2021/01/04 02:18:26;;;;;;;29.80;14.63;;;1.70;99.90;;;;;;4993385;28;20061;-75
2021/01/04 02:21:34;;;;;;;28.88;14.55;;;1.70;99.90;;;;;;4994744;28;20424;-75
2021/01/04 02:24:29;;;;;;;26.25;13.93;;;1.70;99.90;;;;;;4982757;28;20023;-75
2021/01/04 02:27:12;;;;;;;28.52;14.88;;;1.70;99.90;;;;;;4993655;28;20027;-75
2021/01/04 02:29:38;;;;;;;28.52;13.57;;;1.70;99.90;;;;;;4982200;28;20505;-75
2021/01/04 02:32:07;;;;;;;27.35;13.55;;;1.70;99.90;;;;;;4993665;28;20126;-75
2021/01/04 02:34:41;;;;;;;28.90;14.25;;;1.70;99.90;;;;;;4994070;28;20518;-75
2021/01/04 02:37:07;;;;;;;31.05;14.02;;;1.70;99.90;;;;;;4994667;28;20029;-75
2021/01/04 02:39:51;;;;;;;28.00;13.65;;;1.70;99.90;;;;;;4994356;28;20097;-75
2021/01/04 02:42:19;;;;;;;28.30;14.05;;;1.70;99.90;;;;;;5005404;28;20027;-75
2021/01/04 02:44:46;;;;;;;27.33;12.93;;;1.70;99.90;;;;;;4991401;28;20027;-75
2021/01/04 02:47:40;;;;;;;26.60;13.60;;;1.70;99.90;;;;;;4993124;28;20026;-74
2021/01/04 02:50:23;;;;;;;27.95;13.20;;;1.70;99.90;;;;;;4994171;28;20503;-75
2021/01/04 02:53:03;;;;;;;30.98;14.55;;;1.70;99.90;;;;;;4992504;28;20030;-74
2021/01/04 02:55:51;;;;;;;29.85;13.18;;;1.80;99.90;;;;;;5008427;28;20399;-75
2021/01/04 02:58:32;;;;;;;26.90;14.35;;;1.70;99.90;;;;;;4993600;28;20026;-75
2021/01/04 03:01:07;;;;;;;32.40;14.10;;;1.80;99.90;;;;;;4994110;28;20026;-74
2021/01/04 03:03:34;;;;;;;29.35;14.07;;;1.70;99.90;;;;;;4993523;28;20037;-74
2021/01/04 03:06:02;;;;;;;30.33;15.50;;;1.70;99.90;;;;;;4993115;28;20033;-74
2021/01/04 03:08:27;;;;;;;28.77;13.98;;;1.70;99.90;;;;;;4993658;28;20401;-75
2021/01/04 03:10:53;;;;;;;33.75;15.02;;;1.70;99.90;;;;;;4993698;28;20094;-74
2021/01/04 03:14:03;;;;;;;28.58;14.43;;;1.70;99.90;;;;;;4991773;28;20081;-74
2021/01/04 03:16:55;;;;;;;26.77;13.70;;;1.80;99.90;;;;;;4991653;28;20484;-75
2021/01/04 03:19:25;;;;;;;33.30;14.85;;;1.80;99.90;;;;;;4993551;28;20038;-75
2021/01/04 03:22:03;;;;;;;30.80;14.10;;;1.80;99.90;;;;;;4993423;28;20042;-75
2021/01/04 03:24:29;;;;;;;34.25;14.63;;;1.80;99.90;;;;;;4992714;28;20385;-75
2021/01/04 03:27:02;;;;;;;31.92;14.02;;;1.80;99.90;;;;;;4993591;28;20480;-75
2021/01/04 03:29:27;;;;;;;34.00;14.38;;;1.80;99.90;;;;;;4992311;28;20030;-75
2021/01/04 03:31:53;;;;;;;33.75;14.70;;;1.80;99.90;;;;;;4993821;28;20018;-75
2021/01/04 03:34:18;;;;;;;36.28;16.58;;;1.80;99.90;;;;;;4993672;28;20113;-75
2021/01/04 03:36:44;;;;;;;31.85;15.43;;;1.80;99.90;;;;;;4991793;28;20022;-75
2021/01/04 03:39:09;;;;;;;33.47;14.68;;;1.80;99.90;;;;;;4991903;28;20110;-76
2021/01/04 03:41:35;;;;;;;32.80;15.15;;;1.80;99.90;;;;;;5008289;28;20041;-75
2021/01/04 03:44:00;;;;;;;38.05;15.60;;;1.80;99.90;;;;;;4991560;28;20049;-75
2021/01/04 03:46:26;;;;;;;34.58;15.50;;;1.80;99.90;;;;;;4992634;28;20034;-75
2021/01/04 03:48:51;;;;;;;38.70;16.08;;;1.90;99.90;;;;;;4991059;28;20030;-75
2021/01/04 03:51:17;;;;;;;37.13;15.60;;;1.90;99.90;;;;;;4991373;28;20106;-75
2021/01/04 03:53:43;;;;;;;34.80;14.38;;;1.80;99.90;;;;;;4989840;28;20547;-75
2021/01/04 03:56:16;;;;;;;36.20;15.18;;;1.90;99.90;;;;;;4986184;28;20026;-75
2021/01/04 03:58:42;;;;;;;34.53;15.40;;;1.90;99.90;;;;;;4991007;28;20081;-75
2021/01/04 04:01:08;;;;;;;31.55;15.18;;;1.90;99.90;;;;;;4991573;28;20022;-75
2021/01/04 04:03:33;;;;;;;34.78;14.23;;;1.90;99.90;;;;;;4992119;28;20045;-75
2021/01/04 04:05:59;;;;;;;33.53;14.45;;;1.80;99.90;;;;;;4991201;28;20472;-75
2021/01/04 04:08:26;;;;;;;31.67;15.88;;;1.90;99.90;;;;;;4986679;28;20049;-75
2021/01/04 04:10:52;;;;;;;33.35;14.00;;;1.90;99.90;;;;;;5007472;28;20029;-76
2021/01/04 04:13:18;;;;;;;32.90;14.32;;;1.90;99.90;;;;;;4990188;28;20026;-75
2021/01/04 04:15:43;;;;;;;29.70;13.52;;;1.90;99.90;;;;;;4991497;28;20105;-75
2021/01/04 04:18:09;;;;;;;25.08;13.10;;;1.90;99.90;;;;;;4992039;28;20037;-74
2021/01/04 04:20:35;;;;;;;27.95;13.07;;;1.90;99.90;;;;;;4991245;28;20022;-74
2021/01/04 04:23:00;;;;;;;27.65;13.32;;;1.90;99.90;;;;;;4991320;28;20088;-74
2021/01/04 04:25:27;;;;;;;26.77;12.85;;;1.90;99.90;;;;;;4990122;28;20042;-75
2021/01/04 04:27:54;;;;;;;27.35;12.38;;;1.90;99.90;;;;;;4990484;28;20026;-74
2021/01/04 04:30:21;;;;;;;28.67;12.13;;;1.90;99.90;;;;;;4989712;28;20035;-74
2021/01/04 04:32:52;;;;;;;24.65;11.70;;;1.90;99.90;;;;;;4991347;28;20026;-75
2021/01/04 04:35:18;;;;;;;25.83;11.55;;;1.90;99.90;;;;;;4989570;28;20250;-75
2021/01/04 04:37:44;;;;;;;19.98;10.90;;;1.90;99.90;;;;;;4987928;28;20030;-74
2021/01/04 04:40:18;;;;;;;26.13;12.43;;;1.90;99.90;;;;;;4988011;28;20045;-74
2021/01/04 04:42:46;;;;;;;21.80;11.02;;;1.90;99.90;;;;;;4988484;28;20030;-74
2021/01/04 04:45:18;;;;;;;24.40;11.63;;;1.90;99.90;;;;;;4988080;28;20133;-75
2021/01/04 04:48:20;;;;;;;21.20;11.23;;;1.90;99.90;;;;;;4990046;28;20550;-75
2021/01/04 04:51:26;;;;;;;26.17;11.48;;;1.90;99.90;;;;;;4991448;28;20109;-74
2021/01/04 04:54:17;;;;;;;22.40;11.32;;;1.90;99.90;;;;;;4982407;28;20030;-72
2021/01/04 04:56:52;;;;;;;18.73;10.13;;;1.80;99.90;;;;;;4991026;28;20030;-73
2021/01/04 04:59:42;;;;;;;19.38;10.55;;;1.90;99.90;;;;;;4991937;28;20037;-73
2021/01/04 05:02:36;;;;;;;18.95;10.55;;;1.90;99.90;;;;;;4992095;28;20031;-75
2021/01/04 05:05:24;;;;;;;16.48;9.18;;;1.90;99.90;;;;;;4991481;28;20168;-75
2021/01/04 05:08:40;;;;;;;17.48;9.63;;;1.90;99.90;;;;;;4991793;28;20030;-76
2021/01/04 05:11:07;;;;;;;18.70;9.07;;;1.90;99.90;;;;;;4946969;28;20042;-75
2021/01/04 05:13:41;;;;;;;18.67;9.38;;;1.90;99.90;;;;;;4991608;28;20077;-75
2021/01/04 05:16:26;;;;;;;18.17;9.10;;;1.90;99.90;;;;;;4991155;28;20517;-75
2021/01/04 05:19:10;;;;;;;16.45;9.05;;;1.90;99.90;;;;;;4991519;28;20391;-75
2021/01/04 05:22:13;;;;;;;20.70;9.70;;;1.90;99.90;;;;;;4991782;28;20026;-75
2021/01/04 05:24:59;;;;;;;16.38;8.75;;;1.90;99.90;;;;;;4978693;28;20027;-75
2021/01/04 05:28:01;;;;;;;15.55;8.98;;;1.90;99.90;;;;;;4995904;28;20372;-75
2021/01/04 05:30:43;;;;;;;16.38;8.93;;;1.90;99.90;;;;;;4983168;28;20030;-76
2021/01/04 05:33:43;;;;;;;20.42;10.05;;;1.90;99.90;;;;;;5007543;28;20046;-76
2021/01/04 05:36:47;;;;;;;16.70;8.57;;;1.90;99.90;;;;;;4995317;28;20018;-76
2021/01/04 05:39:13;;;;;;;15.27;8.93;;;1.90;99.90;;;;;;4997149;28;20015;-76
2021/01/04 05:42:20;;;;;;;15.60;9.70;;;1.90;99.90;;;;;;4995629;28;20018;-76
2021/01/04 05:45:16;;;;;;;17.48;9.00;;;1.90;99.90;;;;;;4982015;28;20023;-75
2021/01/04 05:47:59;;;;;;;14.38;8.23;;;1.90;99.90;;;;;;4989847;28;20038;-76
2021/01/04 05:50:34;;;;;;;18.25;8.85;;;1.90;99.90;;;;;;4986608;28;20489;-76
2021/01/04 05:53:00;;;;;;;15.85;8.40;;;1.90;99.90;;;;;;4995307;28;20486;-76
2021/01/04 05:55:26;;;;;;;17.23;9.43;;;1.90;99.90;;;;;;4993383;28;20023;-76
2021/01/04 05:57:54;;;;;;;14.50;8.40;;;1.90;99.90;;;;;;4991558;28;20056;-76
2021/01/04 06:00:33;;;;;;;13.85;8.00;;;1.90;99.90;;;;;;4992733;28;20098;-75
2021/01/04 06:03:20;;;;;;;15.57;8.70;;;1.90;99.90;;;;;;4994519;28;20023;-76
2021/01/04 06:05:47;;;;;;;16.67;8.98;;;1.90;99.90;;;;;;4993081;28;20033;-75
2021/01/04 06:08:42;;;;;;;14.40;8.25;;;1.90;99.90;;;;;;4995104;28;20122;-75
2021/01/04 06:11:12;;;;;;;13.77;8.55;;;1.90;99.90;;;;;;4982255;28;20039;-75
2021/01/04 06:13:41;;;;;;;13.75;8.02;;;1.80;99.90;;;;;;4994472;28;20023;-75
2021/01/04 06:16:09;;;;;;;13.32;8.10;;;1.90;99.90;;;;;;4994602;28;20033;-75
2021/01/04 06:18:46;;;;;;;17.33;8.63;;;1.90;99.90;;;;;;4994868;28;20029;-76
2021/01/04 06:21:37;;;;;;;13.20;8.63;;;1.90;99.90;;;;;;4994720;28;20032;-75
2021/01/04 06:24:04;;;;;;;12.07;7.28;;;1.90;99.90;;;;;;4993258;28;20030;-75
2021/01/04 06:26:30;;;;;;;11.60;7.57;;;1.90;99.90;;;;;;4994397;28;20591;-75
2021/01/04 06:29:06;;;;;;;10.95;6.97;;;1.90;99.90;;;;;;4993338;28;20048;-75
2021/01/04 06:31:52;;;;;;;12.30;6.93;;;1.90;99.90;;;;;;4994800;28;20026;-75
2021/01/04 06:34:27;;;;;;;11.20;6.53;;;1.90;99.90;;;;;;4994604;28;20061;-76
2021/01/04 06:36:58;;;;;;;12.93;7.90;;;1.90;99.90;;;;;;4992397;28;20439;-75
2021/01/04 06:39:31;;;;;;;10.73;7.03;;;1.90;99.90;;;;;;4994317;28;20476;-75
2021/01/04 06:42:12;;;;;;;12.75;7.25;;;1.80;99.90;;;;;;4994429;28;20034;-75
2021/01/04 06:44:37;;;;;;;8.70;6.00;;;1.80;99.90;;;;;;4980669;28;20109;-75
2021/01/04 06:47:14;;;;;;;9.88;6.15;;;1.80;99.90;;;;;;4992731;28;20105;-75
2021/01/04 06:49:55;;;;;;;10.77;6.63;;;1.80;99.90;;;;;;4993952;28;20648;-75
2021/01/04 06:52:32;;;;;;;11.20;6.60;;;1.80;99.90;;;;;;4993771;28;20030;-74
2021/01/04 06:55:14;;;;;;;10.82;6.50;;;1.80;99.90;;;;;;4992341;28;20034;-74
2021/01/04 06:58:07;;;;;;;10.38;7.15;;;1.80;99.90;;;;;;4993155;28;20022;-75
2021/01/04 07:01:02;;;;;;;9.70;6.47;;;1.80;99.90;;;;;;4994168;28;20019;-76
2021/01/04 07:03:45;;;;;;;10.13;6.30;;;1.80;99.90;;;;;;4979927;28;20023;-75
2021/01/04 07:07:04;;;;;;;13.73;6.30;;;1.80;99.90;;;;;;4991827;28;20061;-75
2021/01/04 07:09:49;;;;;;;11.73;6.15;;;1.80;99.90;;;;;;4960689;28;20369;-76
2021/01/04 07:12:38;;;;;;;8.00;5.35;;;1.80;99.90;;;;;;4992170;28;20031;-76
2021/01/04 07:15:18;;;;;;;10.98;6.18;;;1.80;99.90;;;;;;4980803;28;20038;-75
2021/01/04 07:18:13;;;;;;;10.70;6.03;;;1.80;99.90;;;;;;4993502;28;20101;-75
2021/01/04 07:21:07;;;;;;;9.85;6.43;;;1.80;99.90;;;;;;4982504;28;20031;-75
2021/01/04 07:23:46;;;;;;;10.45;6.78;;;1.70;99.90;;;;;;4993307;28;20080;-75
2021/01/04 07:26:39;;;;;;;10.90;6.50;;;1.70;99.90;;;;;;4993103;28;20480;-75
2021/01/04 07:29:43;;;;;;;9.55;6.35;;;1.80;99.90;;;;;;4993185;28;20019;-75
2021/01/04 07:32:55;;;;;;;8.57;5.55;;;1.70;99.90;;;;;;4993504;28;20093;-75
2021/01/04 07:35:30;;;;;;;8.60;5.65;;;1.70;99.90;;;;;;4992873;28;20526;-75
2021/01/04 07:38:19;;;;;;;8.77;6.43;;;1.70;99.90;;;;;;4991707;28;20022;-75
2021/01/04 07:41:06;;;;;;;8.80;5.78;;;1.70;99.90;;;;;;4989442;28;20479;-75
2021/01/04 07:44:06;;;;;;;9.13;5.32;;;1.70;99.90;;;;;;4991992;28;20450;-76
2021/01/04 07:46:52;;;;;;;9.27;6.32;;;1.70;99.90;;;;;;4979975;28;20022;-76
2021/01/04 07:49:52;;;;;;;8.35;5.50;;;1.70;99.90;;;;;;4990669;28;20038;-74
2021/01/04 07:52:49;;;;;;;8.68;5.20;;;1.70;99.90;;;;;;4992595;28;20026;-75
2021/01/04 07:55:59;;;;;;;7.93;5.18;;;1.70;99.90;;;;;;4990595;28;20019;-75
2021/01/04 07:58:44;;;;;;;8.48;5.72;;;1.70;99.90;;;;;;4992134;28;20018;-74
2021/01/04 08:01:51;;;;;;;8.65;5.50;;;1.70;99.90;;;;;;4992145;28;20078;-75
2021/01/04 08:04:53;;;;;;;9.80;6.25;;;1.70;99.90;;;;;;4992425;28;20140;-75
2021/01/04 08:07:42;;;;;;;9.85;5.57;;;1.70;99.90;;;;;;4992242;28;20038;-74
2021/01/04 08:10:33;;;;;;;8.70;5.15;;;1.70;99.90;;;;;;4951402;28;20028;-74
2021/01/04 08:13:37;;;;;;;10.07;5.60;;;1.70;99.90;;;;;;4987614;28;20023;-74
2021/01/04 08:16:12;;;;;;;9.05;5.35;;;1.80;99.90;;;;;;4988285;28;20117;-74
2021/01/04 08:18:39;;;;;;;8.00;5.57;;;1.80;99.90;;;;;;4990779;28;20057;-74
2021/01/04 08:21:43;;;;;;;9.43;6.13;;;1.80;99.90;;;;;;4988810;28;20023;-74
2021/01/04 08:24:23;;;;;;;9.52;6.05;;;1.80;99.90;;;;;;4984360;28;20034;-73
2021/01/04 08:27:11;;;;;;;8.45;5.75;;;1.80;99.90;;;;;;4988260;28;20034;-73
2021/01/04 08:29:42;;;;;;;8.20;5.68;;;1.80;99.90;;;;;;4987033;28;20022;-74
2021/01/04 08:32:25;;;;;;;9.38;6.03;;;1.80;99.90;;;;;;4988814;28;20023;-74
2021/01/04 08:34:51;;;;;;;10.93;5.70;;;1.80;99.90;;;;;;4987949;28;20030;-74
2021/01/04 08:37:34;;;;;;;10.85;6.15;;;1.80;99.90;;;;;;4988590;28;20045;-73
2021/01/04 08:40:13;;;;;;;10.02;6.07;;;1.90;99.90;;;;;;4988124;28;20061;-74
2021/01/04 08:42:39;;;;;;;9.68;5.72;;;1.80;99.90;;;;;;4987817;28;20414;-74
2021/01/04 08:45:11;;;;;;;9.75;6.28;;;1.80;99.90;;;;;;4985654;28;20022;-75
2021/01/04 08:47:51;;;;;;;9.10;5.82;;;1.90;99.90;;;;;;4987947;28;20649;-74
2021/01/04 08:50:22;;;;;;;7.30;4.93;;;1.90;99.90;;;;;;4984115;28;20034;-75
2021/01/04 08:52:51;;;;;;;8.63;5.60;;;1.90;99.90;;;;;;4996631;28;20033;-75
2021/01/04 08:55:34;;;;;;;8.35;5.60;;;1.90;99.90;;;;;;4984985;28;20030;-74
2021/01/04 08:58:13;;;;;;;9.52;5.18;;;1.90;99.90;;;;;;4988838;28;20033;-75
2021/01/04 09:00:38;;;;;;;10.05;5.45;;;1.90;99.90;;;;;;4988246;28;20022;-73
2021/01/04 09:03:04;;;;;;;7.93;5.70;;;1.90;99.90;;;;;;4988734;28;20033;-75
2021/01/04 09:05:38;;;;;;;10.50;5.97;;;1.90;99.90;;;;;;4990246;28;20109;-75
2021/01/04 09:08:06;;;;;;;7.32;5.38;;;1.90;99.90;;;;;;4989043;28;20490;-74
2021/01/04 09:10:47;;;;;;;8.35;5.93;;;1.90;99.90;;;;;;4989382;28;20021;-74
2021/01/04 09:13:22;;;;;;;7.32;5.53;;;2.00;99.90;;;;;;5001119;28;20745;-74
2021/01/04 09:15:51;;;;;;;8.45;5.20;;;2.00;99.90;;;;;;4979122;28;20072;-74
2021/01/04 09:18:50;;;;;;;7.68;5.68;;;2.00;99.90;;;;;;4989346;28;20027;-74
2021/01/04 09:21:29;;;;;;;10.67;5.90;;;2.00;99.90;;;;;;4982760;28;20030;-74
2021/01/04 09:24:05;;;;;;;7.60;5.22;;;2.00;99.90;;;;;;4988980;28;20037;-74
2021/01/04 09:26:35;;;;;;;9.13;6.15;;;2.10;99.90;;;;;;4987565;28;20026;-74
2021/01/04 09:29:16;;;;;;;7.85;5.50;;;2.00;99.90;;;;;;4989963;28;20050;-74
2021/01/04 09:31:51;;;;;;;7.32;5.13;;;2.10;99.90;;;;;;4988670;28;20114;-74
2021/01/04 09:34:19;;;;;;;6.63;5.25;;;2.10;99.90;;;;;;4989899;28;20434;-73
2021/01/04 09:36:45;;;;;;;8.25;5.57;;;2.00;99.90;;;;;;4988579;28;20125;-73
2021/01/04 09:39:13;;;;;;;8.98;5.82;;;2.10;99.90;;;;;;4990226;28;20368;-74
2021/01/04 09:41:39;;;;;;;11.07;6.30;;;2.10;99.90;;;;;;4988824;28;20023;-74
2021/01/04 09:44:07;;;;;;;7.20;5.55;;;2.00;99.90;;;;;;4987481;28;20030;-74
2021/01/04 09:46:45;;;;;;;9.48;6.25;;;2.10;99.90;;;;;;4985675;28;20033;-73
2021/01/04 09:49:20;;;;;;;9.88;5.60;;;2.10;99.90;;;;;;4987286;28;20114;-74
2021/01/04 09:51:58;;;;;;;9.13;6.07;;;2.10;99.90;;;;;;4981371;28;20030;-74
2021/01/04 09:54:31;;;;;;;7.80;5.45;;;2.10;99.90;;;;;;4985260;28;20058;-74
2021/01/04 09:57:01;;;;;;;9.80;5.97;;;2.10;99.90;;;;;;4988219;28;20356;-74
2021/01/04 09:59:28;;;;;;;7.65;5.50;;;2.10;99.90;;;;;;4987482;28;20803;-74
2021/01/04 10:02:00;;;;;;;9.82;6.20;;;2.10;99.90;;;;;;4987793;28;20101;-74
2021/01/04 10:04:42;;;;;;;9.10;5.70;;;2.20;99.90;;;;;;4986132;28;20034;-75
2021/01/04 10:07:11;;;;;;;10.70;6.68;;;2.20;99.90;;;;;;4986828;28;20037;-75
2021/01/04 10:09:43;;;;;;;9.27;6.22;;;2.10;99.90;;;;;;4987640;28;20170;-75
2021/01/04 10:12:12;;;;;;;9.55;6.28;;;2.10;99.90;;;;;;4988258;28;20054;-75
2021/01/04 10:14:39;;;;;;;9.60;6.28;;;2.00;99.90;;;;;;4987769;28;20069;-75
2021/01/04 10:17:05;;;;;;;9.20;6.28;;;2.00;99.90;;;;;;4979161;28;20030;-75
2021/01/04 10:19:40;;;;;;;10.50;6.43;;;2.00;99.90;;;;;;4991046;28;20057;-75
2021/01/04 10:22:14;;;;;;;9.40;5.95;;;2.00;99.90;;;;;;4991095;28;20149;-75
2021/01/04 10:24:59;;;;;;;10.20;5.85;;;1.90;99.90;;;;;;4989337;28;20034;-75
2021/01/04 10:27:28;;;;;;;7.38;5.72;;;1.90;99.90;;;;;;4989683;28;20057;-75
2021/01/04 10:29:56;;;;;;;7.50;5.65;;;1.90;99.90;;;;;;4991391;28;20014;-75
2021/01/04 10:32:37;;;;;;;7.90;5.65;;;1.90;99.90;;;;;;4990077;28;20015;-75
2021/01/04 10:35:04;;;;;;;8.95;5.45;;;1.90;99.90;;;;;;4990354;28;20026;-75
2021/01/04 10:37:30;;;;;;;8.52;6.40;;;1.90;99.90;;;;;;4990436;28;20026;-75
2021/01/04 10:40:01;;;;;;;7.32;5.32;;;1.90;99.90;;;;;;4991557;28;20101;-75
2021/01/04 10:42:27;;;;;;;8.45;5.68;;;2.00;99.90;;;;;;4988206;28;20088;-75
2021/01/04 10:45:04;;;;;;;8.15;5.50;;;2.00;99.90;;;;;;4987601;28;20045;-75
2021/01/04 10:47:53;;;;;;;9.82;6.22;;;2.00;99.90;;;;;;4989753;28;20030;-75
2021/01/04 10:50:22;;;;;;;8.80;5.45;;;2.10;99.90;;;;;;4990757;28;20607;-74
2021/01/04 10:52:56;;;;;;;9.43;5.75;;;2.10;99.90;;;;;;4990531;28;20080;-75
2021/01/04 10:55:24;;;;;;;7.30;5.25;;;2.10;99.90;;;;;;4972811;28;20027;-75
2021/01/04 10:57:55;;;;;;;7.05;5.15;;;2.00;99.90;;;;;;4989893;28;20031;-76
2021/01/04 11:00:29;;;;;;;9.88;6.20;;;2.00;99.90;;;;;;4990870;28;20406;-75
2021/01/04 11:02:56;;;;;;;10.90;5.70;;;2.00;99.90;;;;;;4988901;28;20026;-75
2021/01/04 11:05:48;;;;;;;8.95;5.82;;;2.00;99.90;;;;;;4985091;28;20026;-75
2021/01/04 11:08:25;;;;;;;7.43;4.78;;;2.00;99.90;;;;;;4987909;28;20097;-75
2021/01/04 11:11:17;;;;;;;7.22;5.57;;;2.00;99.90;;;;;;4989128;28;20022;-74
2021/01/04 11:13:42;;;;;;;8.75;5.90;;;2.00;99.90;;;;;;4988765;28;20113;-74
2021/01/04 11:16:16;;;;;;;7.93;5.68;;;2.00;99.90;;;;;;4987133;28;20109;-75
2021/01/04 11:18:54;;;;;;;7.53;5.53;;;2.00;99.90;;;;;;4978118;28;20126;-75
2021/01/04 11:21:32;;;;;;;8.68;5.82;;;2.00;99.90;;;;;;4985612;28;20573;-75
2021/01/04 11:24:01;;;;;;;7.88;5.65;;;2.10;99.90;;;;;;4991383;28;20031;-76
2021/01/04 11:26:26;;;;;;;9.52;5.55;;;2.10;99.90;;;;;;4989231;28;20466;-75
2021/01/04 11:28:52;;;;;;;10.90;6.25;;;2.10;99.90;;;;;;4990161;28;20022;-75
2021/01/04 11:31:17;;;;;;;9.55;5.80;;;2.10;99.90;;;;;;4989812;28;20030;-75
2021/01/04 11:33:43;;;;;;;10.68;6.18;;;2.10;99.90;;;;;;4988298;28;20459;-75
2021/01/04 11:36:10;;;;;;;10.10;6.40;;;2.10;99.90;;;;;;4989234;28;20092;-75
2021/01/04 11:38:36;;;;;;;9.43;6.10;;;2.10;99.90;;;;;;4988039;28;20034;-75
2021/01/04 11:41:01;;;;;;;12.32;6.95;;;2.20;99.90;;;;;;5004582;28;20479;-75
2021/01/04 11:43:27;;;;;;;9.80;6.15;;;2.10;99.90;;;;;;4987071;28;20026;-76
2021/01/04 11:45:52;;;;;;;9.30;6.07;;;2.10;99.90;;;;;;4987335;28;20114;-75
2021/01/04 11:48:18;;;;;;;9.98;5.75;;;2.10;99.90;;;;;;4989586;28;20427;-75
2021/01/04 11:50:43;;;;;;;7.65;5.40;;;2.10;99.90;;;;;;4985292;28;20391;-75
2021/01/04 11:53:09;;;;;;;8.27;5.15;;;2.10;99.90;;;;;;4987755;28;20034;-75
2021/01/04 11:55:34;;;;;;;8.68;6.28;;;2.20;99.90;;;;;;4988285;28;20041;-75
2021/01/04 11:58:00;;;;;;;8.50;5.90;;;2.20;99.90;;;;;;4989582;28;20483;-75
2021/01/04 12:00:26;;;;;;;7.47;5.05;;;2.20;99.90;;;;;;4989417;28;20030;-75
2021/01/04 12:02:52;;;;;;;7.78;5.45;;;2.20;99.90;;;;;;4986642;28;20039;-75
2021/01/04 12:05:18;;;;;;;7.93;5.40;;;2.20;99.90;;;;;;4983748;28;20034;-75
2021/01/04 12:07:43;;;;;;;8.27;5.88;;;2.20;99.90;;;;;;4985231;28;20538;-75
2021/01/04 12:10:11;;;;;;;8.70;5.72;;;2.20;99.90;;;;;;4987950;28;20023;-75
2021/01/04 12:12:36;;;;;;;10.88;5.90;;;2.20;99.90;;;;;;4987088;28;20054;-75
2021/01/04 12:15:04;;;;;;;9.70;6.15;;;2.20;99.90;;;;;;4986815;28;20506;-75
2021/01/04 12:17:29;;;;;;;8.85;5.53;;;2.10;99.90;;;;;;4986568;28;20120;-75
2021/01/04 12:19:55;;;;;;;10.90;6.50;;;2.10;99.90;;;;;;4981344;28;20105;-75
2021/01/04 12:22:20;;;;;;;8.98;5.35;;;2.10;99.90;;;;;;4988237;28;20430;-76
2021/01/04 12:24:48;;;;;;;10.32;6.47;;;2.20;99.90;;;;;;4986523;28;20440;-74
2021/01/04 12:27:17;;;;;;;8.20;5.75;;;2.20;99.90;;;;;;5004951;28;20050;-75
2021/01/04 12:29:47;;;;;;;9.57;6.40;;;2.20;99.90;;;;;;5001339;28;20292;-75
2021/01/04 12:32:14;;;;;;;8.98;6.00;;;2.20;99.90;;;;;;4986860;28;20022;-75
2021/01/04 12:34:40;;;;;;;10.13;6.50;;;2.10;99.90;;;;;;4985439;28;20038;-75
2021/01/04 12:37:06;;;;;;;9.77;6.68;;;2.10;99.90;;;;;;4986217;28;20476;-75
2021/01/04 12:39:31;;;;;;;10.15;6.43;;;2.10;99.90;;;;;;5002807;28;20030;-75
2021/01/04 12:41:57;;;;;;;10.75;6.45;;;2.10;99.90;;;;;;4986764;28;20030;-75
2021/01/04 12:44:22;;;;;;;10.38;6.82;;;2.00;99.90;;;;;;4986173;28;20030;-75
2021/01/04 12:46:50;;;;;;;9.20;6.03;;;2.00;99.90;;;;;;4987831;28;20026;-75
2021/01/04 12:49:19;;;;;;;9.50;6.53;;;2.00;99.90;;;;;;4984345;28;20026;-75
2021/01/04 12:52:08;;;;;;;11.98;6.60;;;2.00;99.90;;;;;;4987782;28;20451;-75
2021/01/04 12:54:36;;;;;;;9.93;6.70;;;2.00;99.90;;;;;;4943180;29;20039;-75
2021/01/04 12:57:04;;;;;;;10.15;6.85;;;2.00;99.90;;;;;;4946664;29;20032;-74
2021/01/04 12:59:30;;;;;;;12.23;7.35;;;2.00;99.90;;;;;;4968585;28;20046;-75
2021/01/04 13:01:56;;;;;;;10.82;6.72;;;2.00;99.90;;;;;;4983673;28;20045;-75
2021/01/04 13:04:25;;;;;;;10.20;7.15;;;2.00;99.90;;;;;;4990623;28;20114;-75
2021/01/04 13:06:52;;;;;;;13.27;7.25;;;2.00;99.90;;;;;;4990721;28;20645;-74
2021/01/04 13:09:18;;;;;;;9.48;7.22;;;2.00;99.90;;;;;;4990925;28;20097;-75
2021/01/04 13:11:46;;;;;;;8.13;6.75;;;2.00;99.90;;;;;;4989524;28;20527;-75
2021/01/04 13:14:11;;;;;;;11.52;7.30;;;2.00;99.90;;;;;;4989124;28;20042;-75
2021/01/04 13:16:38;;;;;;;11.57;7.35;;;2.00;99.90;;;;;;4986634;28;20637;-75
2021/01/04 13:19:05;;;;;;;11.57;7.95;;;1.90;99.90;;;;;;4989060;28;20018;-75
2021/01/04 13:21:31;;;;;;;12.52;7.78;;;1.90;99.90;;;;;;4987230;28;20034;-75
2021/01/04 13:23:57;;;;;;;15.45;9.80;;;1.90;99.90;;;;;;4986966;28;20056;-75
2021/01/04 13:26:23;;;;;;;16.50;9.60;;;1.90;99.90;;;;;;4985153;28;20041;-75
2021/01/04 13:28:48;;;;;;;15.90;10.18;;;1.90;99.90;;;;;;4985633;28;20054;-75
2021/01/04 13:31:22;;;;;;;16.33;9.57;;;1.90;99.90;;;;;;4986871;28;20029;-75
2021/01/04 13:33:48;;;;;;;18.60;10.27;;;1.90;99.90;;;;;;4987219;28;20101;-75
2021/01/04 13:36:13;;;;;;;15.07;9.10;;;1.90;99.90;;;;;;4987758;28;20121;-75
2021/01/04 13:38:39;;;;;;;16.65;9.90;;;1.90;99.90;;;;;;4988695;28;20083;-75